createdAt,value
2019-04-03T00:00:11.187Z,59
2019-04-03T00:05:43.871Z,60
2019-04-03T00:11:16.799Z,60
2019-04-03T00:16:49.875Z,62
2019-04-03T00:22:22.760Z,65
2019-04-03T00:27:55.717Z,68
2019-04-03T00:33:28.700Z,70
2019-04-03T00:39:01.611Z,74
2019-04-03T00:44:34.395Z,75
2019-04-03T00:50:07.185Z,75
2019-04-03T00:55:39.896Z,74
2019-04-03T01:01:12.702Z,73
2019-04-03T01:06:45.491Z,70
2019-04-03T01:12:18.275Z,70
2019-04-03T01:17:51.082Z,70
2019-04-03T01:23:23.894Z,71
2019-04-03T01:28:56.651Z,71
2019-04-03T01:34:29.373Z,71
2019-04-03T01:40:02.101Z,71
2019-04-03T01:45:34.842Z,71
2019-04-03T01:51:07.565Z,71
2019-04-03T01:56:40.115Z,72
2019-04-03T02:02:12.855Z,73
2019-04-03T02:07:45.362Z,72
2019-04-03T02:13:18.187Z,73
2019-04-03T02:18:50.705Z,72
2019-04-03T02:24:23.374Z,72
2019-04-03T02:29:55.738Z,72
2019-04-03T02:35:28.455Z,71
2019-04-03T02:41:03.350Z,71
2019-04-03T02:46:33.144Z,71
2019-04-03T02:52:05.198Z,71
2019-04-03T02:57:37.735Z,70
2019-04-03T03:03:09.575Z,71
2019-04-03T03:08:42.508Z,70
2019-04-03T03:14:13.270Z,71
2019-04-03T03:19:45.175Z,70
2019-04-03T03:25:17.209Z,71
2019-04-03T03:30:57.552Z,72
2019-04-03T03:36:24.582Z,72
2019-04-03T03:41:55.577Z,73
2019-04-03T03:47:25.848Z,74
2019-04-03T03:52:58.395Z,73
2019-04-03T03:58:30.419Z,74
2019-04-03T04:04:02.674Z,73
2019-04-03T04:09:35.183Z,72
2019-04-03T04:15:07.822Z,71
2019-04-03T04:20:40.237Z,70
2019-04-03T04:26:13.058Z,70
2019-04-03T04:31:45.643Z,70
2019-04-03T04:37:18.313Z,71
2019-04-03T04:42:50.913Z,72
2019-04-03T04:48:23.553Z,73
2019-04-03T04:53:56.296Z,75
2019-04-03T04:59:29.132Z,79
2019-04-03T05:05:02.116Z,81
2019-04-03T05:10:34.714Z,83
2019-04-03T05:16:06.529Z,84
2019-04-03T05:21:38.901Z,86
2019-04-03T05:27:11.447Z,89
2019-04-03T05:32:43.954Z,90
2019-04-03T05:38:16.706Z,92
2019-04-03T05:43:48.916Z,98
2019-04-03T05:49:21.168Z,93
2019-04-03T05:54:53.065Z,93
2019-04-03T06:00:25.376Z,92
2019-04-03T06:05:58.503Z,92
2019-04-03T06:11:24.638Z,93
2019-04-03T06:16:57.197Z,93
2019-04-03T06:22:29.273Z,92
2019-04-03T06:28:01.304Z,92
2019-04-03T06:33:34.893Z,93
2019-04-03T06:39:05.496Z,93
2019-04-03T06:44:37.183Z,93
2019-04-03T06:50:11.796Z,93
2019-04-03T06:55:40.993Z,93
2019-04-03T07:01:13.075Z,93
2019-04-03T07:06:45.590Z,94
2019-04-03T07:12:17.458Z,93
2019-04-03T07:17:50.274Z,94
2019-04-03T07:23:22.738Z,93
2019-04-03T07:28:55.247Z,95
2019-04-03T07:34:27.855Z,94
2019-04-03T07:40:02.316Z,96
2019-04-03T07:45:33.564Z,96
2019-04-03T07:51:06.285Z,94
2019-04-03T07:56:38.438Z,94
2019-04-03T08:02:12.544Z,89
2019-04-03T08:07:43.344Z,92
2019-04-03T08:13:16.182Z,92
2019-04-03T08:18:49.901Z,91
2019-04-03T08:24:20.910Z,86
2019-04-03T08:29:53.319Z,86
2019-04-03T08:35:25.639Z,86
2019-04-03T08:40:58.432Z,88
2019-04-03T08:46:31.313Z,85
2019-04-03T08:52:05.631Z,85
2019-04-03T08:57:37.674Z,86
2019-04-03T09:03:10.412Z,88
2019-04-03T09:08:43.300Z,85
2019-04-03T09:14:15.901Z,81
2019-04-03T09:19:48.754Z,81
2019-04-03T09:25:22.575Z,82
2019-04-03T09:30:55.650Z,84
2019-04-03T09:36:28.892Z,84
2019-04-03T09:42:02.058Z,83
2019-04-03T09:47:27.670Z,83
2019-04-03T09:53:02.421Z,81
2019-04-03T09:58:35.261Z,85
2019-04-03T10:04:07.173Z,86
2019-04-03T10:09:42.784Z,84
2019-04-03T10:15:13.240Z,83
2019-04-03T10:20:48.568Z,85
2019-04-03T10:26:19.744Z,82
2019-04-03T10:31:54.699Z,79
2019-04-03T10:37:25.698Z,81
2019-04-03T10:43:00.463Z,82
2019-04-03T10:48:31.727Z,78
2019-04-03T10:54:04.684Z,76
2019-04-03T10:59:37.487Z,75
2019-04-03T11:05:10.797Z,78
2019-04-03T11:10:43.745Z,80
2019-04-03T11:16:16.828Z,78
2019-04-03T11:21:49.813Z,79
2019-04-03T11:27:25.374Z,78
2019-04-03T11:32:55.987Z,77
2019-04-03T11:38:29.781Z,77
2019-04-03T11:44:02.353Z,76
2019-04-03T11:49:35.513Z,77
2019-04-03T11:55:10.818Z,78
2019-04-03T12:00:41.255Z,77
2019-04-03T12:06:15.811Z,77
2019-04-03T12:11:46.907Z,77
2019-04-03T12:17:19.436Z,76
2019-04-03T12:22:54.082Z,77
2019-04-03T12:28:24.618Z,80
2019-04-03T12:34:03.275Z,85
2019-04-03T12:39:29.736Z,89
2019-04-03T12:45:01.935Z,88
2019-04-03T12:50:38.950Z,90
2019-04-03T12:56:10.851Z,89
2019-04-03T13:01:43.189Z,90
2019-04-03T13:07:15.451Z,91
2019-04-03T13:12:48.122Z,94
2019-04-03T13:18:19.900Z,96
2019-04-03T13:23:47.702Z,95
2019-04-03T13:29:21.283Z,97
2019-04-03T13:34:43.837Z,96
2019-04-03T13:40:14.907Z,93
2019-04-03T13:45:46.833Z,96
2019-04-03T13:51:13.379Z,95
2019-04-03T13:56:41.731Z,95
2019-04-03T14:02:13.172Z,96
2019-04-03T14:07:36.265Z,96
2019-04-03T14:13:11.332Z,96
2019-04-03T14:18:40.687Z,97
2019-04-03T14:24:11.541Z,96
2019-04-03T14:29:36.768Z,98
2019-04-03T14:35:32.434Z,97
2019-04-03T14:40:41.316Z,97
2019-04-03T14:46:12.128Z,97
2019-04-03T14:51:44.345Z,97
2019-04-03T14:57:21.679Z,97
2019-04-03T15:02:49.098Z,97
2019-04-03T15:08:22.656Z,97
2019-04-03T15:13:52.464Z,98
2019-04-03T15:19:24.906Z,98
2019-04-03T15:24:56.583Z,98
2019-04-03T15:30:28.611Z,98
2019-04-03T15:36:03.432Z,98
2019-04-03T15:41:33.963Z,99
2019-04-03T15:46:56.184Z,99
2019-04-03T15:52:28.321Z,101
2019-04-03T15:58:00.046Z,101
2019-04-03T16:03:31.729Z,101
2019-04-03T16:09:03.783Z,99
2019-04-03T16:14:35.374Z,99
2019-04-03T16:20:07.318Z,99
2019-04-03T16:25:32.956Z,99
2019-04-03T16:31:04.573Z,99
2019-04-03T16:36:30.745Z,99
2019-04-03T16:42:03.007Z,99
2019-04-03T16:47:33.578Z,100
2019-04-03T16:52:58.287Z,99
2019-04-03T16:58:29.430Z,99
2019-04-03T17:04:02.582Z,100
2019-04-03T17:09:26.684Z,99
2019-04-03T17:14:58.088Z,99
2019-04-03T17:20:29.634Z,99
2019-04-03T17:26:00.595Z,99
2019-04-03T17:31:24.637Z,99
2019-04-03T17:36:55.756Z,99
2019-04-03T17:42:26.871Z,99
2019-04-03T17:47:57.997Z,99
2019-04-03T17:53:29.091Z,98
2019-04-03T17:59:00.226Z,99
2019-04-03T18:04:23.764Z,99
2019-04-03T18:09:54.849Z,98
2019-04-03T18:15:27.389Z,99
2019-04-03T18:20:58.702Z,100
2019-04-03T18:26:21.254Z,100
2019-04-03T18:31:52.315Z,101
2019-04-03T18:37:24.239Z,101
2019-04-03T18:42:56.117Z,100
2019-04-03T18:48:28.002Z,99
2019-04-03T18:53:59.811Z,100
2019-04-03T18:59:31.572Z,100
2019-04-03T19:05:02.052Z,101
2019-04-03T19:10:30.997Z,101
2019-04-03T19:16:02.807Z,101
2019-04-03T19:21:34.608Z,102
2019-04-03T19:27:06.195Z,102
2019-04-03T19:32:37.098Z,102
2019-04-03T19:38:07.941Z,102
2019-04-03T19:43:39.039Z,103
2019-04-03T19:49:10.858Z,103
2019-04-03T19:54:42.509Z,103
2019-04-03T20:00:14.234Z,103
2019-04-03T20:05:46.009Z,104
2019-04-03T20:11:16.934Z,104
2019-04-03T20:16:47.885Z,104
2019-04-03T20:22:18.655Z,104
2019-04-03T20:27:52.073Z,104
2019-04-03T20:33:20.399Z,104
2019-04-03T20:38:51.275Z,104
2019-04-03T20:44:22.173Z,104
2019-04-03T20:49:53.097Z,104
2019-04-03T20:55:25.395Z,104
2019-04-03T21:01:05.899Z,104
2019-04-03T21:06:27.347Z,104
2019-04-03T21:11:58.339Z,104
2019-04-03T21:17:29.262Z,105
2019-04-03T21:23:02.788Z,105
2019-04-03T21:28:30.995Z,105
2019-04-03T21:34:02.377Z,105
2019-04-03T21:39:33.843Z,105
2019-04-03T21:45:07.060Z,105
2019-04-03T21:50:34.429Z,105
2019-04-03T21:56:05.227Z,105
2019-04-03T22:01:36.036Z,105
2019-04-03T22:07:06.934Z,105
2019-04-03T22:12:37.772Z,105
2019-04-03T22:18:08.563Z,105
2019-04-03T22:23:39.473Z,105
2019-04-03T22:29:10.302Z,105
2019-04-03T22:34:43.323Z,105
2019-04-03T22:40:11.987Z,105
2019-04-03T22:45:42.793Z,105
2019-04-03T22:51:13.661Z,105
2019-04-03T22:56:45.879Z,105
2019-04-03T23:02:15.317Z,105
2019-04-03T23:07:46.202Z,105
2019-04-03T23:13:16.977Z,105
2019-04-03T23:18:47.870Z,105
2019-04-03T23:24:18.678Z,105
2019-04-03T23:29:49.601Z,105
2019-04-03T23:35:21.127Z,105
2019-04-03T23:40:51.280Z,105
2019-04-03T23:46:22.125Z,105
2019-04-03T23:51:52.946Z,105
2019-04-03T23:57:23.813Z,105
